createdAt,value
2018-03-11T00:00:53.076Z,93.10
2018-03-11T00:03:20.599Z,93.10
2018-03-11T00:05:48.106Z,93.10
2018-03-11T00:08:15.647Z,93.10
2018-03-11T00:10:43.242Z,93.20
2018-03-11T00:13:11.533Z,93.10
2018-03-11T00:15:39.049Z,93.10
2018-03-11T00:18:06.772Z,93.40
2018-03-11T00:20:35.160Z,93.10
2018-03-11T00:23:03.446Z,93.10
2018-03-11T00:25:31.721Z,93.00
2018-03-11T00:28:00.014Z,93.00
2018-03-11T00:30:28.299Z,93.20
2018-03-11T00:32:56.601Z,93.10
2018-03-11T00:35:24.105Z,93.10
2018-03-11T00:37:51.613Z,93.00
2018-03-11T00:40:19.225Z,92.90
2018-03-11T00:42:47.469Z,92.80
2018-03-11T00:45:15.125Z,92.90
2018-03-11T00:47:42.682Z,92.90
2018-03-11T00:50:10.594Z,93.00
2018-03-11T00:52:38.326Z,93.00
2018-03-11T00:55:05.868Z,93.00
2018-03-11T00:57:34.153Z,93.00
2018-03-11T01:00:02.656Z,93.10
2018-03-11T01:02:30.239Z,93.10
2018-03-11T01:04:57.803Z,93.00
2018-03-11T01:07:26.086Z,93.10
2018-03-11T01:09:55.724Z,92.90
2018-03-11T01:12:23.240Z,92.90
2018-03-11T01:14:51.538Z,92.90
2018-03-11T01:17:19.051Z,92.90
2018-03-11T01:19:46.552Z,92.90
2018-03-11T01:22:14.049Z,92.90
2018-03-11T01:24:41.683Z,92.90
2018-03-11T01:27:09.202Z,92.90
2018-03-11T01:29:36.740Z,92.90
2018-03-11T01:32:04.255Z,92.80
2018-03-11T01:34:32.969Z,92.70
2018-03-11T01:37:00.482Z,92.70
2018-03-11T01:39:28.010Z,92.50
2018-03-11T01:42:00.784Z,92.30
2018-03-11T01:44:29.174Z,92.30
2018-03-11T01:46:56.666Z,92.30
2018-03-11T01:49:24.485Z,92.40
2018-03-11T01:51:52.789Z,92.30
2018-03-11T01:54:20.280Z,92.30
2018-03-11T01:56:47.774Z,92.30
2018-03-11T01:59:16.254Z,92.30
2018-03-11T02:01:44.522Z,92.40
2018-03-11T02:04:12.130Z,92.30
2018-03-11T02:06:39.712Z,92.30
2018-03-11T02:09:07.289Z,92.40
2018-03-11T02:11:34.807Z,92.30
2018-03-11T02:14:03.155Z,92.20
2018-03-11T02:16:30.878Z,92.10
2018-03-11T02:18:58.379Z,92.20
2018-03-11T02:21:25.866Z,92.30
2018-03-11T02:23:53.352Z,92.30
2018-03-11T02:26:21.612Z,92.30
2018-03-11T02:28:49.180Z,92.30
2018-03-11T02:31:17.447Z,92.40
2018-03-11T02:33:44.957Z,92.40
2018-03-11T02:36:12.640Z,92.40
2018-03-11T02:38:40.167Z,92.40
2018-03-11T02:41:08.421Z,92.50
2018-03-11T02:43:35.928Z,92.50
2018-03-11T02:46:03.446Z,92.50
2018-03-11T02:48:31.722Z,92.60
2018-03-11T02:50:59.236Z,92.60
2018-03-11T02:53:26.856Z,92.70
2018-03-11T02:55:54.382Z,92.70
2018-03-11T02:58:21.874Z,92.70
2018-03-11T03:00:49.387Z,92.70
2018-03-11T03:03:16.889Z,92.70
2018-03-11T03:05:44.405Z,92.70
2018-03-11T03:08:12.676Z,92.70
2018-03-11T03:10:40.954Z,92.70
2018-03-11T03:13:10.106Z,92.60
2018-03-11T03:15:37.620Z,92.60
2018-03-11T03:18:06.026Z,92.60
2018-03-11T03:20:33.529Z,92.60
2018-03-11T03:23:01.036Z,92.70
2018-03-11T03:25:29.335Z,92.70
2018-03-11T03:27:57.475Z,92.70
2018-03-11T03:30:24.997Z,92.80
2018-03-11T03:32:52.484Z,92.80
2018-03-11T03:35:20.046Z,92.80
2018-03-11T03:37:47.547Z,92.80
2018-03-11T03:40:15.818Z,92.80
2018-03-11T03:42:44.142Z,92.60
2018-03-11T03:45:11.636Z,92.80
2018-03-11T03:47:39.140Z,92.80
2018-03-11T03:50:07.451Z,92.90
2018-03-11T03:52:34.980Z,93.10
2018-03-11T03:55:03.279Z,92.80
2018-03-11T03:57:31.164Z,92.80
2018-03-11T03:59:58.803Z,92.80
2018-03-11T04:02:27.081Z,92.80
2018-03-11T04:04:55.410Z,92.80
2018-03-11T04:07:22.916Z,92.80
2018-03-11T04:09:51.210Z,92.90
2018-03-11T04:12:20.244Z,92.90
2018-03-11T04:14:47.785Z,92.90
2018-03-11T04:17:15.373Z,92.90
2018-03-11T04:19:42.916Z,93.00
2018-03-11T04:22:10.400Z,93.00
2018-03-11T04:24:37.902Z,93.00
2018-03-11T04:27:05.440Z,93.00
2018-03-11T04:29:32.939Z,92.90
2018-03-11T04:32:00.443Z,92.90
2018-03-11T04:34:27.963Z,92.80
2018-03-11T04:36:55.481Z,92.80
2018-03-11T04:39:24.119Z,92.80
2018-03-11T04:41:52.409Z,92.60
2018-03-11T04:44:20.680Z,92.90
2018-03-11T04:46:48.961Z,92.90
2018-03-11T04:49:16.458Z,92.80
2018-03-11T04:51:44.080Z,92.80
2018-03-11T04:54:11.588Z,92.90
2018-03-11T04:56:39.138Z,93.00
2018-03-11T04:59:06.658Z,93.10
2018-03-11T05:01:34.138Z,93.20
2018-03-11T05:04:02.433Z,93.20
2018-03-11T05:06:30.771Z,93.30
2018-03-11T05:08:58.273Z,93.30
2018-03-11T05:11:26.555Z,93.30
2018-03-11T05:13:55.000Z,93.40
2018-03-11T05:16:22.544Z,93.30
2018-03-11T05:18:50.080Z,93.40
2018-03-11T05:21:17.602Z,93.40
2018-03-11T05:23:45.121Z,93.40
2018-03-11T05:26:13.506Z,93.30
2018-03-11T05:28:41.000Z,93.30
2018-03-11T05:31:08.506Z,93.20
2018-03-11T05:33:36.796Z,93.30
2018-03-11T05:36:05.152Z,93.20
2018-03-11T05:38:33.410Z,93.20
2018-03-11T05:41:00.972Z,93.20
2018-03-11T05:43:28.464Z,93.20
2018-03-11T05:45:56.044Z,93.30
2018-03-11T05:48:24.320Z,93.20
2018-03-11T05:50:52.622Z,93.20
2018-03-11T05:53:20.137Z,93.20
2018-03-11T05:55:47.734Z,93.10
2018-03-11T05:58:16.098Z,93.20
2018-03-11T06:00:43.614Z,93.20
2018-03-11T06:03:11.108Z,93.20
2018-03-11T06:05:38.604Z,93.10
2018-03-11T06:08:06.928Z,93.10
2018-03-11T06:10:34.470Z,93.10
2018-03-11T06:13:02.767Z,93.00
2018-03-11T06:15:30.351Z,93.00
2018-03-11T06:17:57.962Z,93.00
2018-03-11T06:20:26.234Z,92.90
2018-03-11T06:22:53.752Z,92.90
2018-03-11T06:25:21.281Z,92.80
2018-03-11T06:27:48.822Z,92.80
2018-03-11T06:30:17.320Z,92.60
2018-03-11T06:32:44.710Z,92.50
2018-03-11T06:35:12.212Z,92.20
2018-03-11T06:37:39.734Z,91.90
2018-03-11T06:40:07.236Z,91.50
2018-03-11T06:42:34.780Z,91.20
2018-03-11T06:45:02.494Z,90.80
2018-03-11T06:47:30.770Z,90.20
2018-03-11T06:49:59.085Z,90.00
2018-03-11T06:52:26.586Z,89.90
2018-03-11T06:54:54.082Z,89.60
2018-03-11T06:57:22.362Z,88.70
2018-03-11T06:59:50.652Z,88.30
2018-03-11T07:02:18.959Z,87.60
2018-03-11T07:04:46.499Z,87.60
2018-03-11T07:07:14.774Z,87.20
2018-03-11T07:09:43.072Z,86.70
2018-03-11T07:12:10.601Z,86.70
2018-03-11T07:14:38.118Z,86.60
2018-03-11T07:17:05.618Z,86.10
2018-03-11T07:19:33.156Z,86.00
2018-03-11T07:22:00.704Z,85.80
2018-03-11T07:24:29.161Z,85.90
2018-03-11T07:26:57.449Z,85.50
2018-03-11T07:29:25.747Z,85.60
2018-03-11T07:31:54.154Z,85.60
2018-03-11T07:34:21.653Z,85.50
2018-03-11T07:36:49.982Z,85.50
2018-03-11T07:39:17.508Z,85.50
2018-03-11T07:41:45.788Z,85.70
2018-03-11T07:44:14.070Z,85.90
2018-03-11T07:46:41.580Z,85.70
2018-03-11T07:49:09.079Z,85.60
2018-03-11T07:51:37.350Z,85.90
2018-03-11T07:54:04.921Z,85.90
2018-03-11T07:56:32.437Z,85.60
2018-03-11T07:59:00.159Z,85.70
2018-03-11T08:01:27.698Z,85.60
2018-03-11T08:03:55.254Z,85.30
2018-03-11T08:06:22.764Z,85.50
2018-03-11T08:08:50.319Z,85.70
2018-03-11T08:11:18.821Z,84.20
2018-03-11T08:13:47.093Z,84.20
2018-03-11T08:16:15.800Z,83.70
2018-03-11T08:18:44.161Z,83.10
2018-03-11T08:21:12.436Z,82.90
2018-03-11T08:23:41.535Z,82.80
2018-03-11T08:26:09.039Z,82.70
2018-03-11T08:28:36.573Z,82.70
2018-03-11T08:31:04.837Z,81.70
2018-03-11T08:33:32.350Z,81.60
2018-03-11T08:35:59.928Z,81.20
2018-03-11T08:38:27.437Z,80.40
2018-03-11T08:40:55.700Z,79.90
2018-03-11T08:43:23.241Z,79.90
2018-03-11T08:45:50.742Z,80.10
2018-03-11T08:48:19.832Z,80.40
2018-03-11T08:50:47.350Z,80.30
2018-03-11T08:53:14.875Z,79.80
2018-03-11T08:55:42.401Z,79.70
2018-03-11T08:58:09.914Z,79.30
2018-03-11T09:00:38.169Z,79.00
2018-03-11T09:03:06.584Z,79.00
2018-03-11T09:05:34.845Z,78.40
2018-03-11T09:08:02.387Z,78.40
2018-03-11T09:10:29.965Z,78.00
2018-03-11T09:12:58.595Z,77.70
2018-03-11T09:17:50.171Z,77.50
2018-03-11T09:20:18.188Z,77.30
2018-03-11T09:22:46.445Z,76.50
2018-03-11T09:25:13.951Z,76.40
2018-03-11T09:27:41.527Z,76.50
2018-03-11T09:30:09.064Z,76.40
2018-03-11T09:32:37.451Z,76.30
2018-03-11T09:35:05.722Z,76.30
2018-03-11T09:37:33.220Z,76.10
2018-03-11T09:40:00.736Z,75.70
2018-03-11T09:42:28.268Z,75.80
2018-03-11T09:44:55.830Z,75.10
2018-03-11T09:47:23.358Z,74.70
2018-03-11T09:49:51.636Z,74.70
2018-03-11T09:52:19.898Z,74.20
2018-03-11T09:54:47.530Z,74.10
2018-03-11T09:57:15.044Z,74.20
2018-03-11T09:59:43.335Z,74.10
2018-03-11T10:02:11.612Z,73.70
2018-03-11T10:04:39.898Z,73.60
2018-03-11T10:07:07.410Z,73.50
2018-03-11T10:09:34.918Z,73.50
2018-03-11T10:12:03.250Z,73.40
2018-03-11T10:14:30.777Z,73.30
2018-03-11T10:16:58.288Z,73.50
2018-03-11T10:19:26.432Z,73.10
2018-03-11T10:21:53.974Z,72.60
2018-03-11T10:24:21.487Z,71.90
2018-03-11T10:26:48.995Z,72.00
2018-03-11T10:29:17.327Z,71.00
2018-03-11T10:31:45.402Z,71.00
2018-03-11T10:34:13.028Z,70.90
2018-03-11T10:36:40.695Z,70.50
2018-03-11T10:39:09.023Z,68.50
2018-03-11T10:41:36.597Z,68.50
2018-03-11T10:44:04.137Z,68.10
2018-03-11T10:46:31.636Z,68.00
2018-03-11T10:49:00.691Z,66.50
2018-03-11T10:51:28.176Z,66.50
2018-03-11T10:53:55.782Z,66.10
2018-03-11T10:56:24.046Z,65.90
2018-03-11T10:58:51.574Z,65.90
2018-03-11T11:01:20.718Z,66.20
2018-03-11T11:03:52.974Z,66.20
2018-03-11T11:06:20.511Z,67.50
2018-03-11T11:08:48.024Z,67.60
2018-03-11T11:11:16.298Z,66.80
2018-03-11T11:13:43.836Z,66.70
2018-03-11T11:16:11.335Z,66.10
2018-03-11T11:18:39.604Z,66.10
2018-03-11T11:21:07.114Z,66.00
2018-03-11T11:23:34.637Z,65.70
2018-03-11T11:26:03.041Z,64.50
2018-03-11T11:28:30.541Z,64.50
2018-03-11T11:30:58.348Z,64.60
2018-03-11T11:33:27.838Z,64.80
2018-03-11T11:35:55.372Z,64.80
2018-03-11T11:38:22.874Z,64.90
2018-03-11T11:40:50.492Z,64.10
2018-03-11T11:43:18.012Z,64.00
2018-03-11T11:45:46.469Z,63.20
2018-03-11T11:48:14.531Z,63.00
2018-03-11T11:50:42.043Z,63.10
2018-03-11T11:53:10.342Z,61.80
2018-03-11T11:55:38.098Z,61.70
2018-03-11T11:58:06.390Z,61.90
2018-03-11T12:00:33.917Z,61.90
2018-03-11T12:03:01.408Z,62.60
2018-03-11T12:05:29.709Z,63.10
2018-03-11T12:07:57.275Z,63.10
2018-03-11T12:10:24.770Z,62.80
2018-03-11T12:12:52.306Z,62.40
2018-03-11T12:15:19.791Z,62.70
2018-03-11T12:17:47.296Z,63.80
2018-03-11T12:20:15.664Z,65.90
2018-03-11T12:22:43.159Z,65.90
2018-03-11T12:25:11.410Z,66.50
2018-03-11T12:27:38.930Z,66.30
2018-03-11T12:30:06.552Z,66.40
2018-03-11T12:32:34.957Z,65.70
2018-03-11T12:35:02.459Z,65.70
2018-03-11T12:37:29.972Z,65.50
2018-03-11T12:39:59.087Z,65.50
2018-03-11T12:42:26.618Z,65.50
2018-03-11T12:44:54.177Z,65.40
2018-03-11T12:47:21.669Z,65.50
2018-03-11T12:49:49.189Z,65.30
2018-03-11T12:52:16.704Z,65.20
2018-03-11T12:54:44.200Z,65.10
2018-03-11T12:57:11.982Z,65.00
2018-03-11T12:59:39.486Z,65.00
2018-03-11T13:02:07.830Z,65.00
2018-03-11T13:04:35.391Z,65.60
2018-03-11T13:07:03.752Z,65.20
2018-03-11T13:09:31.323Z,65.20
2018-03-11T13:11:59.021Z,65.50
2018-03-11T13:14:26.512Z,65.50
2018-03-11T13:16:54.056Z,65.80
2018-03-11T13:19:22.322Z,65.20
2018-03-11T13:21:49.840Z,65.20
2018-03-11T13:24:17.408Z,64.90
2018-03-11T13:26:44.938Z,64.40
2018-03-11T13:29:13.220Z,63.20
2018-03-11T13:31:41.505Z,62.50
2018-03-11T13:34:31.154Z,61.90
2018-03-11T13:36:58.685Z,61.90
2018-03-11T13:39:38.032Z,61.60
2018-03-11T13:42:06.241Z,61.00
2018-03-11T13:44:34.576Z,61.50
2018-03-11T13:47:07.015Z,61.20
2018-03-11T13:49:34.625Z,61.40
2018-03-11T13:52:14.073Z,61.40
2018-03-11T13:54:41.654Z,61.50
2018-03-11T14:00:10.727Z,62.10
2018-03-11T14:02:38.544Z,62.10
2018-03-11T14:05:06.844Z,62.20
2018-03-11T14:07:34.378Z,62.20
2018-03-11T14:10:01.940Z,62.20
2018-03-11T14:12:30.218Z,59.70
2018-03-11T14:14:58.504Z,59.20
2018-03-11T14:17:26.768Z,59.40
2018-03-11T14:19:54.280Z,59.40
2018-03-11T14:22:21.799Z,60.10
2018-03-11T14:24:49.378Z,60.30
2018-03-11T14:27:17.677Z,61.20
2018-03-11T14:29:45.254Z,61.20
2018-03-11T14:32:12.790Z,61.40
2018-03-11T14:34:41.104Z,62.30
2018-03-11T14:37:08.596Z,62.20
2018-03-11T14:39:36.163Z,62.70
2018-03-11T14:42:03.655Z,63.00
2018-03-11T14:44:31.958Z,63.40
2018-03-11T14:47:00.250Z,63.40
2018-03-11T14:49:27.790Z,63.40
2018-03-11T14:51:55.449Z,63.60
2018-03-11T14:54:22.942Z,63.50
2018-03-11T14:56:50.756Z,63.80
2018-03-11T14:59:18.352Z,63.90
2018-03-11T15:01:46.624Z,64.20
2018-03-11T15:04:14.142Z,64.20
2018-03-11T15:06:41.640Z,64.30
2018-03-11T15:09:09.144Z,63.70
2018-03-11T15:11:36.650Z,64.20
2018-03-11T15:14:04.232Z,64.50
2018-03-11T15:16:31.807Z,64.90
2018-03-11T15:18:59.356Z,65.30
2018-03-11T15:21:27.691Z,65.40
2018-03-11T15:23:56.017Z,65.40
2018-03-11T15:26:23.529Z,65.50
2018-03-11T15:28:51.105Z,65.80
2018-03-11T15:31:18.601Z,65.80
2018-03-11T15:33:46.144Z,65.80
2018-03-11T15:36:13.663Z,66.00
2018-03-11T15:38:42.168Z,66.00
2018-03-11T15:41:09.702Z,65.80
2018-03-11T15:43:37.310Z,66.10
2018-03-11T15:46:04.854Z,66.40
2018-03-11T15:48:32.383Z,66.70
2018-03-11T15:50:59.904Z,66.90
2018-03-11T15:53:27.420Z,66.90
2018-03-11T15:55:55.742Z,67.00
2018-03-11T15:58:23.327Z,67.20
2018-03-11T16:00:51.082Z,67.40
2018-03-11T16:03:19.293Z,67.50
2018-03-11T16:05:47.922Z,67.80
2018-03-11T16:08:16.657Z,68.50
2018-03-11T16:10:44.242Z,68.40
2018-03-11T16:15:39.237Z,69.50
2018-03-11T16:18:06.768Z,69.30
2018-03-11T16:20:35.035Z,69.70
2018-03-11T16:23:02.534Z,69.50
2018-03-11T16:25:30.197Z,69.80
2018-03-11T16:27:57.640Z,70.00
2018-03-11T16:30:25.909Z,70.30
2018-03-11T16:32:53.641Z,70.30
2018-03-11T16:35:21.188Z,70.60
2018-03-11T16:37:48.684Z,70.60
2018-03-11T16:40:16.233Z,71.00
2018-03-11T16:42:43.862Z,71.20
2018-03-11T16:45:11.389Z,71.40
2018-03-11T16:47:38.906Z,71.70
2018-03-11T16:50:06.454Z,71.90
2018-03-11T16:52:33.996Z,72.10
2018-03-11T16:55:02.612Z,72.60
2018-03-11T16:57:30.161Z,72.60
2018-03-11T16:59:58.631Z,73.00
2018-03-11T17:02:26.152Z,73.00
2018-03-11T17:04:53.704Z,73.20
2018-03-11T17:07:21.240Z,73.50
2018-03-11T17:09:48.824Z,73.50
2018-03-11T17:12:16.358Z,73.70
2018-03-11T17:14:43.898Z,73.90
2018-03-11T17:17:11.580Z,74.20
2018-03-11T17:19:39.142Z,74.00
2018-03-11T17:22:06.695Z,73.80
2018-03-11T17:24:34.262Z,74.10
2018-03-11T17:27:02.030Z,74.10
2018-03-11T17:29:29.539Z,74.10
2018-03-11T17:31:57.098Z,74.30
2018-03-11T17:34:24.679Z,74.40
2018-03-11T17:36:52.176Z,74.40
2018-03-11T17:39:19.688Z,74.40
2018-03-11T17:41:47.202Z,74.40
2018-03-11T17:44:14.714Z,74.50
2018-03-11T17:46:43.036Z,74.30
2018-03-11T17:49:10.517Z,74.30
2018-03-11T17:51:38.144Z,74.20
2018-03-11T17:54:05.734Z,74.10
2018-03-11T17:56:33.240Z,74.20
2018-03-11T17:59:01.758Z,74.50
2018-03-11T18:01:29.313Z,74.50
2018-03-11T18:03:56.844Z,74.60
2018-03-11T18:06:25.108Z,74.60
2018-03-11T18:08:52.624Z,74.50
2018-03-11T18:11:20.138Z,74.50
2018-03-11T18:13:47.699Z,74.80
2018-03-11T18:16:15.319Z,75.00
2018-03-11T18:18:42.972Z,75.30
2018-03-11T18:21:10.496Z,75.40
2018-03-11T18:23:39.384Z,75.70
2018-03-11T18:26:06.881Z,75.50
2018-03-11T18:28:35.155Z,76.00
2018-03-11T18:31:03.434Z,76.20
2018-03-11T18:33:31.703Z,76.20
2018-03-11T18:35:59.985Z,76.60
2018-03-11T18:38:28.268Z,76.20
2018-03-11T18:40:56.590Z,76.40
2018-03-11T18:43:24.163Z,76.40
2018-03-11T18:45:52.637Z,76.50
2018-03-11T18:48:20.170Z,76.50
2018-03-11T18:50:48.440Z,76.80
2018-03-11T18:53:16.742Z,76.80
2018-03-11T18:55:44.276Z,76.70
2018-03-11T18:58:11.827Z,76.70
2018-03-11T19:00:39.325Z,77.50
2018-03-11T19:03:07.056Z,76.60
2018-03-11T19:05:34.589Z,76.50
2018-03-11T19:08:02.148Z,77.00
2018-03-11T19:10:29.676Z,77.00
2018-03-11T19:12:58.000Z,77.20
2018-03-11T19:15:25.534Z,77.10
2018-03-11T19:17:53.121Z,76.90
2018-03-11T19:20:20.673Z,77.00
2018-03-11T19:22:49.000Z,77.00
2018-03-11T19:25:16.665Z,77.00
2018-03-11T19:27:44.188Z,77.00
2018-03-11T19:30:13.962Z,77.20
2018-03-11T19:32:42.361Z,77.40
2018-03-11T19:35:10.844Z,77.50
2018-03-11T19:37:39.121Z,77.60
2018-03-11T19:40:07.448Z,78.50
2018-03-11T19:42:34.974Z,77.80
2018-03-11T19:45:03.248Z,77.80
2018-03-11T19:47:31.302Z,77.80
2018-03-11T19:49:58.839Z,78.10
2018-03-11T19:52:26.337Z,77.70
2018-03-11T19:54:53.926Z,77.80
2018-03-11T19:57:22.385Z,78.10
2018-03-11T19:59:50.784Z,78.00
2018-03-11T20:02:18.320Z,78.00
2018-03-11T20:04:45.843Z,78.10
2018-03-11T20:07:13.353Z,78.20
2018-03-11T20:09:40.857Z,78.30
2018-03-11T20:12:10.013Z,78.60
2018-03-11T20:14:37.516Z,78.50
2018-03-11T20:17:05.855Z,78.70
2018-03-11T20:19:33.576Z,78.70
2018-03-11T20:22:01.155Z,78.70
2018-03-11T20:24:28.694Z,78.80
2018-03-11T20:26:57.550Z,79.00
2018-03-11T20:29:25.080Z,79.00
2018-03-11T20:31:52.592Z,79.10
2018-03-11T20:34:21.653Z,79.10
2018-03-11T20:36:49.278Z,79.10
2018-03-11T20:39:16.812Z,79.20
2018-03-11T20:41:44.319Z,79.10
2018-03-11T20:44:13.485Z,79.20
2018-03-11T20:46:41.056Z,79.20
2018-03-11T20:49:08.572Z,79.20
2018-03-11T20:51:36.157Z,79.20
2018-03-11T20:54:03.682Z,79.30
2018-03-11T20:56:31.244Z,79.40
2018-03-11T20:58:58.864Z,79.40
2018-03-11T21:01:26.389Z,79.40
2018-03-11T21:03:54.260Z,79.50
2018-03-11T21:06:21.778Z,79.60
2018-03-11T21:08:49.288Z,79.60
2018-03-11T21:11:16.837Z,79.70
2018-03-11T21:13:44.408Z,79.90
2018-03-11T21:16:11.982Z,79.90
2018-03-11T21:18:39.545Z,80.00
2018-03-11T21:21:07.306Z,80.10
2018-03-11T21:23:34.938Z,80.10
2018-03-11T21:26:02.617Z,80.20
2018-03-11T21:28:30.934Z,80.30
2018-03-11T21:30:58.621Z,80.30
2018-03-11T21:33:26.164Z,80.30
2018-03-11T21:35:53.758Z,80.20
2018-03-11T21:38:21.314Z,80.20
2018-03-11T21:40:48.842Z,80.30
2018-03-11T21:43:16.392Z,80.30
2018-03-11T21:45:45.053Z,80.40
2018-03-11T21:48:12.578Z,80.40
2018-03-11T21:50:40.132Z,80.40
2018-03-11T21:53:07.749Z,80.40
2018-03-11T21:55:35.273Z,80.40
2018-03-11T21:58:02.851Z,80.50
2018-03-11T22:00:31.297Z,80.50
2018-03-11T22:02:58.932Z,80.50
2018-03-11T22:05:26.495Z,80.60
2018-03-11T22:07:54.767Z,80.80
2018-03-11T22:10:22.319Z,80.80
2018-03-11T22:12:49.840Z,80.70
2018-03-11T22:15:17.367Z,80.90
2018-03-11T22:17:44.869Z,81.00
2018-03-11T22:20:12.394Z,81.10
2018-03-11T22:22:39.872Z,81.10
2018-03-11T22:25:08.150Z,81.20
2018-03-11T22:27:36.432Z,81.40
2018-03-11T22:30:04.733Z,81.50
2018-03-11T22:32:32.471Z,81.50
2018-03-11T22:34:59.950Z,82.60
2018-03-11T22:37:28.227Z,83.00
2018-03-11T22:39:56.489Z,83.00
2018-03-11T22:42:24.761Z,83.00
2018-03-11T22:44:53.038Z,83.70
2018-03-11T22:47:20.552Z,83.10
2018-03-11T22:49:48.184Z,83.20
2018-03-11T22:52:15.698Z,83.10
2018-03-11T22:54:43.271Z,83.30
2018-03-11T22:57:10.984Z,83.40
2018-03-11T22:59:39.289Z,84.10
2018-03-11T23:02:06.828Z,83.50
2018-03-11T23:04:35.090Z,83.70
2018-03-11T23:07:03.365Z,83.60
2018-03-11T23:09:30.882Z,83.70
2018-03-11T23:11:58.421Z,83.60
2018-03-11T23:14:26.745Z,83.70
2018-03-11T23:16:54.250Z,83.60
2018-03-11T23:19:23.797Z,83.80
2018-03-11T23:21:52.053Z,83.70
2018-03-11T23:24:20.627Z,84.30
2018-03-11T23:26:48.988Z,84.40
2018-03-11T23:29:16.475Z,83.60
2018-03-11T23:31:43.974Z,83.50
2018-03-11T23:34:11.471Z,83.50
2018-03-11T23:36:39.104Z,83.60
2018-03-11T23:39:06.596Z,83.60
2018-03-11T23:41:34.111Z,83.60
2018-03-11T23:44:01.695Z,83.60
2018-03-11T23:46:29.183Z,83.70
2018-03-11T23:48:57.283Z,83.70
2018-03-11T23:51:24.783Z,83.70
2018-03-11T23:53:53.061Z,83.60
2018-03-11T23:56:21.379Z,83.60
2018-03-11T23:58:48.895Z,83.50
